sensor_id;sensor_type;location;lat;lon;timestamp;pressure;altitude;pressure_sealevel;temperature;humidity
13456;BME280;6800;50.940;6.940;2022-10-15T00:00:07;100016.88;;;26.44;43.02
13456;BME280;6800;50.940;6.940;2022-10-15T00:04:08;100019.72;;;26.43;43.05
13456;BME280;6800;50.940;6.940;2022-10-15T00:08:09;100016.66;;;26.46;43.03
13456;BME280;6800;50.940;6.940;2022-10-15T00:12:10;100021.00;;;26.47;43.28
13456;BME280;6800;50.940;6.940;2022-10-15T00:16:16;100022.22;;;26.44;42.68
13456;BME280;6800;50.940;6.940;2022-10-15T00:20:16;100014.19;;;26.38;42.73
13456;BME280;6800;50.940;6.940;2022-10-15T00:24:17;100011.06;;;26.34;43.52
13456;BME280;6800;50.940;6.940;2022-10-15T00:28:17;100009.66;;;26.32;43.55
13456;BME280;6800;50.940;6.940;2022-10-15T00:32:17;99999.56;;;26.34;43.67
13456;BME280;6800;50.940;6.940;2022-10-15T00:36:20;99994.22;;;26.34;43.40
13456;BME280;6800;50.940;6.940;2022-10-15T00:40:21;99980.22;;;26.38;43.36
13456;BME280;6800;50.940;6.940;2022-10-15T00:48:29;99987.81;;;26.28;43.76
13456;BME280;6800;50.940;6.940;2022-10-15T00:52:38;99986.59;;;26.30;43.98
13456;BME280;6800;50.940;6.940;2022-10-15T00:56:41;99979.97;;;26.13;44.35
13456;BME280;6800;50.940;6.940;2022-10-15T01:00:42;99981.97;;;25.98;44.69
13456;BME280;6800;50.940;6.940;2022-10-15T01:04:46;99986.69;;;25.83;45.33
13456;BME280;6800;50.940;6.940;2022-10-15T01:08:46;99996.75;;;25.81;45.22
13456;BME280;6800;50.940;6.940;2022-10-15T01:12:56;99995.94;;;25.74;45.37
13456;BME280;6800;50.940;6.940;2022-10-15T01:17:06;99998.66;;;25.87;45.61
13456;BME280;6800;50.940;6.940;2022-10-15T01:21:24;99999.03;;;25.84;45.12
13456;BME280;6800;50.940;6.940;2022-10-15T01:25:49;99998.22;;;25.84;45.44
13456;BME280;6800;50.940;6.940;2022-10-15T01:34:43;99990.22;;;25.90;45.24
13456;BME280;6800;50.940;6.940;2022-10-15T01:38:57;100000.47;;;25.80;45.42
13456;BME280;6800;50.940;6.940;2022-10-15T01:43:04;100006.22;;;25.77;45.35
13456;BME280;6800;50.940;6.940;2022-10-15T01:47:19;100008.06;;;25.70;45.85
13456;BME280;6800;50.940;6.940;2022-10-15T01:51:22;100007.19;;;25.57;45.68
13456;BME280;6800;50.940;6.940;2022-10-15T01:55:23;99994.63;;;25.50;46.08
13456;BME280;6800;50.940;6.940;2022-10-15T01:59:30;99999.56;;;25.47;45.82
13456;BME280;6800;50.940;6.940;2022-10-15T02:03:31;99987.81;;;25.48;45.87
13456;BME280;6800;50.940;6.940;2022-10-15T02:16:30;99971.19;;;25.52;45.89
13456;BME280;6800;50.940;6.940;2022-10-15T02:20:44;99975.88;;;25.44;45.92
13456;BME280;6800;50.940;6.940;2022-10-15T02:24:57;99988.44;;;25.50;45.88
13456;BME280;6800;50.940;6.940;2022-10-15T02:29:04;99995.88;;;25.54;46.34
13456;BME280;6800;50.940;6.940;2022-10-15T02:33:06;99987.03;;;25.54;46.16
13456;BME280;6800;50.940;6.940;2022-10-15T02:37:07;99995.28;;;25.59;45.95
13456;BME280;6800;50.940;6.940;2022-10-15T02:41:08;99987.06;;;25.67;46.28
13456;BME280;6800;50.940;6.940;2022-10-15T02:45:09;99983.34;;;25.62;46.05
13456;BME280;6800;50.940;6.940;2022-10-15T02:49:09;99981.50;;;25.62;45.67
13456;BME280;6800;50.940;6.940;2022-10-15T02:53:09;99998.16;;;25.58;45.74
13456;BME280;6800;50.940;6.940;2022-10-15T02:57:09;99997.19;;;25.78;45.20
13456;BME280;6800;50.940;6.940;2022-10-15T03:01:10;99996.75;;;25.81;45.21
13456;BME280;6800;50.940;6.940;2022-10-15T03:05:10;99980.72;;;25.68;45.27
13456;BME280;6800;50.940;6.940;2022-10-15T03:09:10;99987.69;;;25.69;45.34
13456;BME280;6800;50.940;6.940;2022-10-15T03:13:11;99987.06;;;25.67;45.26
13456;BME280;6800;50.940;6.940;2022-10-15T03:17:11;99975.75;;;25.65;45.41
13456;BME280;6800;50.940;6.940;2022-10-15T03:21:11;99974.31;;;25.69;45.12
13456;BME280;6800;50.940;6.940;2022-10-15T03:25:12;99979.66;;;25.69;45.38
13456;BME280;6800;50.940;6.940;2022-10-15T03:29:12;99965.44;;;25.62;45.23
13456;BME280;6800;50.940;6.940;2022-10-15T03:33:13;99974.50;;;25.61;45.16
13456;BME280;6800;50.940;6.940;2022-10-15T03:37:13;99971.41;;;25.64;45.39
13456;BME280;6800;50.940;6.940;2022-10-15T03:41:13;99976.56;;;25.59;45.24
13456;BME280;6800;50.940;6.940;2022-10-15T03:45:13;99974.91;;;25.65;45.52
13456;BME280;6800;50.940;6.940;2022-10-15T03:49:14;99966.50;;;25.68;44.94
13456;BME280;6800;50.940;6.940;2022-10-15T03:53:14;99967.16;;;25.76;44.86
13456;BME280;6800;50.940;6.940;2022-10-15T03:57:14;99971.25;;;25.72;44.56
13456;BME280;6800;50.940;6.940;2022-10-15T04:01:16;99976.63;;;25.79;44.39
13456;BME280;6800;50.940;6.940;2022-10-15T04:05:17;99976.00;;;25.77;44.45
13456;BME280;6800;50.940;6.940;2022-10-15T04:09:18;99981.75;;;25.74;44.01
13456;BME280;6800;50.940;6.940;2022-10-15T04:13:19;99984.66;;;25.79;43.94
13456;BME280;6800;50.940;6.940;2022-10-15T04:17:19;99981.75;;;25.80;44.33
13456;BME280;6800;50.940;6.940;2022-10-15T04:21:19;99979.91;;;25.81;44.42
13456;BME280;6800;50.940;6.940;2022-10-15T04:25:20;99978.88;;;25.88;43.18
13456;BME280;6800;50.940;6.940;2022-10-15T04:29:20;99985.06;;;25.89;43.16
13456;BME280;6800;50.940;6.940;2022-10-15T04:33:21;99973.13;;;25.78;43.60
13456;BME280;6800;50.940;6.940;2022-10-15T04:37:21;99962.63;;;25.77;43.67
13456;BME280;6800;50.940;6.940;2022-10-15T04:41:21;99965.44;;;25.62;44.09
13456;BME280;6800;50.940;6.940;2022-10-15T04:45:21;99964.97;;;25.45;44.24
13456;BME280;6800;50.940;6.940;2022-10-15T04:49:22;99966.59;;;25.40;44.19
13456;BME280;6800;50.940;6.940;2022-10-15T04:53:22;99962.88;;;25.41;44.69
13456;BME280;6800;50.940;6.940;2022-10-15T04:57:22;99978.38;;;25.52;44.17
13456;BME280;6800;50.940;6.940;2022-10-15T05:01:22;99987.00;;;25.47;44.58
13456;BME280;6800;50.940;6.940;2022-10-15T05:05:23;99979.22;;;25.59;44.23
13456;BME280;6800;50.940;6.940;2022-10-15T05:09:23;99978.63;;;25.57;43.85
13456;BME280;6800;50.940;6.940;2022-10-15T05:13:23;99985.88;;;25.76;43.81
13456;BME280;6800;50.940;6.940;2022-10-15T05:17:23;99977.22;;;25.74;44.09
13456;BME280;6800;50.940;6.940;2022-10-15T05:21:24;99981.31;;;25.70;43.73
13456;BME280;6800;50.940;6.940;2022-10-15T05:25:24;99995.09;;;25.67;43.65
13456;BME280;6800;50.940;6.940;2022-10-15T05:29:24;99990.59;;;25.74;43.58
13456;BME280;6800;50.940;6.940;2022-10-15T05:33:26;99979.28;;;25.72;43.65
13456;BME280;6800;50.940;6.940;2022-10-15T05:37:26;99975.97;;;25.83;43.47
13456;BME280;6800;50.940;6.940;2022-10-15T05:41:27;99975.59;;;25.93;42.85
13456;BME280;6800;50.940;6.940;2022-10-15T05:45:28;99987.00;;;26.14;42.61
13456;BME280;6800;50.940;6.940;2022-10-15T05:49:28;99977.72;;;26.37;42.06
13456;BME280;6800;50.940;6.940;2022-10-15T05:53:30;99982.69;;;26.33;42.60
13456;BME280;6800;50.940;6.940;2022-10-15T05:57:30;99995.28;;;25.59;43.65
13456;BME280;6800;50.940;6.940;2022-10-15T06:01:30;99981.91;;;25.59;43.76
13456;BME280;6800;50.940;6.940;2022-10-15T06:05:31;100001.63;;;25.58;43.44
13456;BME280;6800;50.940;6.940;2022-10-15T06:09:31;100000.81;;;25.51;44.21
13456;BME280;6800;50.940;6.940;2022-10-15T06:13:31;100001.69;;;25.30;44.65
13456;BME280;6800;50.940;6.940;2022-10-15T06:17:31;99996.13;;;25.25;44.85
13456;BME280;6800;50.940;6.940;2022-10-15T06:21:32;99994.09;;;25.27;44.27
13456;BME280;6800;50.940;6.940;2022-10-15T06:25:32;100001.13;;;25.01;45.10
13456;BME280;6800;50.940;6.940;2022-10-15T06:29:32;100001.44;;;25.19;44.41
13456;BME280;6800;50.940;6.940;2022-10-15T06:33:34;100001.06;;;25.28;45.12
13456;BME280;6800;50.940;6.940;2022-10-15T06:37:34;100006.56;;;25.20;44.96
13456;BME280;6800;50.940;6.940;2022-10-15T06:41:34;100003.44;;;25.44;44.53
13456;BME280;6800;50.940;6.940;2022-10-15T06:45:36;100011.09;;;25.54;44.97
13456;BME280;6800;50.940;6.940;2022-10-15T06:49:37;100019.34;;;25.59;44.82
13456;BME280;6800;50.940;6.940;2022-10-15T06:53:37;100012.81;;;25.81;44.27
13456;BME280;6800;50.940;6.940;2022-10-15T06:57:41;100017.78;;;25.84;43.81
13456;BME280;6800;50.940;6.940;2022-10-15T07:01:41;100017.72;;;25.71;43.27
13456;BME280;6800;50.940;6.940;2022-10-15T07:05:41;100019.22;;;25.87;43.30
13456;BME280;6800;50.940;6.940;2022-10-15T07:09:42;100017.59;;;25.99;42.74
13456;BME280;6800;50.940;6.940;2022-10-15T07:13:42;100015.81;;;26.19;42.69
13456;BME280;6800;50.940;6.940;2022-10-15T07:17:51;100024.59;;;26.06;42.63
13456;BME280;6800;50.940;6.940;2022-10-15T07:21:51;100020.97;;;26.27;41.83
13456;BME280;6800;50.940;6.940;2022-10-15T07:25:51;100019.88;;;25.95;42.93
13456;BME280;6800;50.940;6.940;2022-10-15T07:29:52;100029.25;;;25.31;43.79
13456;BME280;6800;50.940;6.940;2022-10-15T07:33:52;100020.00;;;25.74;42.84
13456;BME280;6800;50.940;6.940;2022-10-15T07:37:53;100016.66;;;26.33;42.35
13456;BME280;6800;50.940;6.940;2022-10-15T07:41:54;100009.25;;;26.87;41.32
13456;BME280;6800;50.940;6.940;2022-10-15T07:45:54;100012.22;;;27.43;40.07
13456;BME280;6800;50.940;6.940;2022-10-15T07:49:54;100009.56;;;27.74;39.76
13456;BME280;6800;50.940;6.940;2022-10-15T07:53:55;100013.91;;;27.75;39.31
13456;BME280;6800;50.940;6.940;2022-10-15T07:57:56;100006.38;;;27.59;39.75
13456;BME280;6800;50.940;6.940;2022-10-15T08:01:57;100006.59;;;27.51;40.15
13456;BME280;6800;50.940;6.940;2022-10-15T08:06:02;100006.38;;;26.82;41.39
13456;BME280;6800;50.940;6.940;2022-10-15T08:10:03;99989.56;;;27.19;40.78
13456;BME280;6800;50.940;6.940;2022-10-15T08:14:05;99983.22;;;27.07;41.19
13456;BME280;6800;50.940;6.940;2022-10-15T08:18:06;99989.44;;;26.94;41.70
13456;BME280;6800;50.940;6.940;2022-10-15T08:22:07;99983.69;;;27.93;39.85
13456;BME280;6800;50.940;6.940;2022-10-15T08:26:07;99987.97;;;28.31;38.96
13456;BME280;6800;50.940;6.940;2022-10-15T08:30:08;99977.63;;;28.84;38.46
13456;BME280;6800;50.940;6.940;2022-10-15T08:34:08;99983.25;;;27.58;40.27
13456;BME280;6800;50.940;6.940;2022-10-15T08:38:10;99974.88;;;27.41;40.74
13456;BME280;6800;50.940;6.940;2022-10-15T08:42:18;99962.69;;;27.83;40.21
13456;BME280;6800;50.940;6.940;2022-10-15T08:46:34;99967.13;;;28.58;38.96
13456;BME280;6800;50.940;6.940;2022-10-15T08:50:40;99961.25;;;28.18;39.27
13456;BME280;6800;50.940;6.940;2022-10-15T08:54:41;99979.25;;;28.11;39.56
13456;BME280;6800;50.940;6.940;2022-10-15T08:59:02;99959.06;;;28.02;39.95
13456;BME280;6800;50.940;6.940;2022-10-15T09:03:15;99961.56;;;28.28;39.30
13456;BME280;6800;50.940;6.940;2022-10-15T09:07:46;99961.56;;;28.96;37.97
13456;BME280;6800;50.940;6.940;2022-10-15T09:12:05;99961.44;;;28.66;38.31
13456;BME280;6800;50.940;6.940;2022-10-15T09:16:17;99971.72;;;27.95;39.90
13456;BME280;6800;50.940;6.940;2022-10-15T09:20:24;99961.28;;;28.36;39.95
13456;BME280;6800;50.940;6.940;2022-10-15T09:24:27;99956.59;;;28.57;39.27
13456;BME280;6800;50.940;6.940;2022-10-15T09:28:38;99963.38;;;28.59;39.46
13456;BME280;6800;50.940;6.940;2022-10-15T09:33:07;99955.53;;;28.58;39.35
13456;BME280;6800;50.940;6.940;2022-10-15T09:45:40;99957.53;;;28.13;40.23
13456;BME280;6800;50.940;6.940;2022-10-15T09:49:40;99943.03;;;30.13;35.93
13456;BME280;6800;50.940;6.940;2022-10-15T09:53:54;99955.09;;;29.21;38.24
13456;BME280;6800;50.940;6.940;2022-10-15T09:58:06;99947.22;;;29.02;39.15
13456;BME280;6800;50.940;6.940;2022-10-15T10:06:14;99941.09;;;28.27;41.06
13456;BME280;6800;50.940;6.940;2022-10-15T10:10:25;99927.44;;;28.35;41.46
13456;BME280;6800;50.940;6.940;2022-10-15T10:14:40;99927.25;;;28.30;41.54
13456;BME280;6800;50.940;6.940;2022-10-15T10:18:42;99921.59;;;29.36;39.97
13456;BME280;6800;50.940;6.940;2022-10-15T10:22:52;99918.72;;;29.78;39.00
13456;BME280;6800;50.940;6.940;2022-10-15T10:26:53;99925.25;;;29.23;39.92
13456;BME280;6800;50.940;6.940;2022-10-15T10:31:00;99932.22;;;28.94;40.16
13456;BME280;6800;50.940;6.940;2022-10-15T10:35:03;99928.00;;;28.62;40.79
13456;BME280;6800;50.940;6.940;2022-10-15T10:47:24;99913.38;;;29.30;39.57
13456;BME280;6800;50.940;6.940;2022-10-15T10:51:25;99902.06;;;29.70;38.69
13456;BME280;6800;50.940;6.940;2022-10-15T10:55:36;99902.75;;;29.65;39.23
13456;BME280;6800;50.940;6.940;2022-10-15T10:59:43;99906.59;;;29.28;39.96
13456;BME280;6800;50.940;6.940;2022-10-15T11:03:47;99898.63;;;29.63;38.82
13456;BME280;6800;50.940;6.940;2022-10-15T11:16:33;99894.41;;;29.85;38.09
13456;BME280;6800;50.940;6.940;2022-10-15T11:20:52;99886.50;;;29.72;38.36
13456;BME280;6800;50.940;6.940;2022-10-15T11:29:50;99883.09;;;30.52;36.31
13456;BME280;6800;50.940;6.940;2022-10-15T11:38:56;99878.31;;;30.31;36.59
13456;BME280;6800;50.940;6.940;2022-10-15T11:43:00;99878.84;;;30.10;37.30
13456;BME280;6800;50.940;6.940;2022-10-15T11:47:41;99874.78;;;30.19;36.92
13456;BME280;6800;50.940;6.940;2022-10-15T11:56:37;99880.28;;;30.70;35.87
13456;BME280;6800;50.940;6.940;2022-10-15T12:00:44;99872.53;;;30.04;37.60
13456;BME280;6800;50.940;6.940;2022-10-15T12:04:53;99861.97;;;30.72;35.77
13456;BME280;6800;50.940;6.940;2022-10-15T12:08:56;99867.97;;;31.14;35.22
13456;BME280;6800;50.940;6.940;2022-10-15T12:13:20;99860.78;;;30.92;35.51
13456;BME280;6800;50.940;6.940;2022-10-15T12:25:41;99843.84;;;31.36;35.09
13456;BME280;6800;50.940;6.940;2022-10-15T12:29:47;99839.94;;;31.60;34.64
13456;BME280;6800;50.940;6.940;2022-10-15T12:33:51;99828.03;;;31.28;34.83
13456;BME280;6800;50.940;6.940;2022-10-15T12:37:52;99831.78;;;31.55;34.73
13456;BME280;6800;50.940;6.940;2022-10-15T12:41:52;99831.34;;;31.18;35.58
13456;BME280;6800;50.940;6.940;2022-10-15T12:45:57;99835.13;;;31.17;35.68
13456;BME280;6800;50.940;6.940;2022-10-15T12:50:02;99827.38;;;31.82;34.71
13456;BME280;6800;50.940;6.940;2022-10-15T12:54:33;99830.47;;;31.91;34.32
13456;BME280;6800;50.940;6.940;2022-10-15T12:58:38;99821.78;;;32.60;33.52
13456;BME280;6800;50.940;6.940;2022-10-15T13:02:41;99835.66;;;32.47;33.57
13456;BME280;6800;50.940;6.940;2022-10-15T13:06:45;99831.41;;;32.34;33.77
13456;BME280;6800;50.940;6.940;2022-10-15T13:10:49;99824.22;;;32.02;33.68
13456;BME280;6800;50.940;6.940;2022-10-15T13:14:56;99812.00;;;31.66;34.07
13456;BME280;6800;50.940;6.940;2022-10-15T13:18:58;99814.03;;;32.09;33.65
13456;BME280;6800;50.940;6.940;2022-10-15T13:23:19;99811.00;;;32.05;33.39
13456;BME280;6800;50.940;6.940;2022-10-15T13:27:26;99815.09;;;32.08;33.66
13456;BME280;6800;50.940;6.940;2022-10-15T13:31:30;99807.81;;;32.90;32.78
13456;BME280;6800;50.940;6.940;2022-10-15T13:35:37;99814.13;;;32.74;32.77
13456;BME280;6800;50.940;6.940;2022-10-15T13:39:38;99820.59;;;32.34;33.47
13456;BME280;6800;50.940;6.940;2022-10-15T13:43:50;99819.91;;;32.61;33.00
13456;BME280;6800;50.940;6.940;2022-10-15T13:47:52;99819.94;;;32.87;32.68
13456;BME280;6800;50.940;6.940;2022-10-15T13:51:53;99827.56;;;32.47;33.43
13456;BME280;6800;50.940;6.940;2022-10-15T13:55:56;99827.53;;;32.09;34.04
13456;BME280;6800;50.940;6.940;2022-10-15T13:59:56;99825.66;;;32.09;33.87
13456;BME280;6800;50.940;6.940;2022-10-15T14:03:58;99830.16;;;31.87;34.36
13456;BME280;6800;50.940;6.940;2022-10-15T14:07:59;99823.94;;;30.97;36.20
13456;BME280;6800;50.940;6.940;2022-10-15T14:12:00;99821.47;;;31.52;35.38
13456;BME280;6800;50.940;6.940;2022-10-15T14:20:18;99827.63;;;32.14;34.72
13456;BME280;6800;50.940;6.940;2022-10-15T14:24:22;99833.09;;;32.19;34.94
13456;BME280;6800;50.940;6.940;2022-10-15T14:28:27;99829.38;;;32.42;34.63
13456;BME280;6800;50.940;6.940;2022-10-15T14:32:45;99823.78;;;32.10;34.63
13456;BME280;6800;50.940;6.940;2022-10-15T14:36:45;99823.69;;;32.21;34.71
13456;BME280;6800;50.940;6.940;2022-10-15T14:41:03;99831.50;;;32.01;34.95
13456;BME280;6800;50.940;6.940;2022-10-15T14:49:24;99835.59;;;32.04;34.63
13456;BME280;6800;50.940;6.940;2022-10-15T14:53:28;99835.84;;;32.02;35.10
13456;BME280;6800;50.940;6.940;2022-10-15T14:57:35;99839.66;;;32.23;34.40
13456;BME280;6800;50.940;6.940;2022-10-15T15:01:38;99838.34;;;32.25;34.69
13456;BME280;6800;50.940;6.940;2022-10-15T15:05:50;99847.75;;;32.23;34.03
13456;BME280;6800;50.940;6.940;2022-10-15T15:09:51;99828.19;;;31.83;35.07
13456;BME280;6800;50.940;6.940;2022-10-15T15:13:52;99823.63;;;31.83;35.15
13456;BME280;6800;50.940;6.940;2022-10-15T15:17:53;99887.06;;;31.52;35.55
13456;BME280;6800;50.940;6.940;2022-10-15T15:21:53;99903.00;;;30.28;38.24
13456;BME280;6800;50.940;6.940;2022-10-15T15:25:53;99903.91;;;30.22;38.52
13456;BME280;6800;50.940;6.940;2022-10-15T15:29:55;99920.44;;;29.73;39.09
13456;BME280;6800;50.940;6.940;2022-10-15T15:33:55;99909.97;;;29.05;40.11
13456;BME280;6800;50.940;6.940;2022-10-15T15:37:56;99924.81;;;29.26;40.42
13456;BME280;6800;50.940;6.940;2022-10-15T15:41:56;99943.09;;;28.99;40.16
13456;BME280;6800;50.940;6.940;2022-10-15T15:45:56;99950.97;;;29.37;40.34
13456;BME280;6800;50.940;6.940;2022-10-15T15:49:56;99951.94;;;28.88;41.42
13456;BME280;6800;50.940;6.940;2022-10-15T15:53:57;99955.88;;;28.86;41.69
13456;BME280;6800;50.940;6.940;2022-10-15T15:57:57;99963.13;;;28.85;42.06
13456;BME280;6800;50.940;6.940;2022-10-15T16:01:58;99965.34;;;28.70;42.44
13456;BME280;6800;50.940;6.940;2022-10-15T16:05:58;99964.06;;;28.73;42.50
13456;BME280;6800;50.940;6.940;2022-10-15T16:09:58;99977.69;;;28.78;41.87
13456;BME280;6800;50.940;6.940;2022-10-15T16:13:58;99976.53;;;28.67;42.67
13456;BME280;6800;50.940;6.940;2022-10-15T16:17:59;99977.44;;;28.97;41.50
13456;BME280;6800;50.940;6.940;2022-10-15T16:21:59;99983.06;;;28.96;41.54
13456;BME280;6800;50.940;6.940;2022-10-15T16:25:59;99992.44;;;28.87;40.87
13456;BME280;6800;50.940;6.940;2022-10-15T16:30:00;100000.69;;;28.92;40.57
13456;BME280;6800;50.940;6.940;2022-10-15T16:34:04;99998.03;;;28.67;41.37
13456;BME280;6800;50.940;6.940;2022-10-15T16:38:04;100011.38;;;28.98;40.32
13456;BME280;6800;50.940;6.940;2022-10-15T16:42:05;100013.88;;;28.93;39.75
13456;BME280;6800;50.940;6.940;2022-10-15T16:46:05;100015.31;;;28.78;40.22
13456;BME280;6800;50.940;6.940;2022-10-15T16:50:06;100019.91;;;28.71;40.35
13456;BME280;6800;50.940;6.940;2022-10-15T16:54:10;100031.38;;;28.28;40.71
13456;BME280;6800;50.940;6.940;2022-10-15T16:58:11;100036.84;;;28.40;40.47
13456;BME280;6800;50.940;6.940;2022-10-15T17:02:11;100053.69;;;28.29;40.00
13456;BME280;6800;50.940;6.940;2022-10-15T17:06:18;100069.53;;;28.06;40.80
13456;BME280;6800;50.940;6.940;2022-10-15T17:10:18;100086.81;;;28.16;40.02
13456;BME280;6800;50.940;6.940;2022-10-15T17:14:24;100091.25;;;27.98;39.80
13456;BME280;6800;50.940;6.940;2022-10-15T17:18:24;100102.44;;;27.81;39.71
13456;BME280;6800;50.940;6.940;2022-10-15T17:22:25;100101.34;;;28.02;39.85
13456;BME280;6800;50.940;6.940;2022-10-15T17:26:28;100114.47;;;28.17;39.64
13456;BME280;6800;50.940;6.940;2022-10-15T17:30:29;100129.41;;;27.93;39.58
13456;BME280;6800;50.940;6.940;2022-10-15T17:34:29;100138.78;;;27.84;40.00
13456;BME280;6800;50.940;6.940;2022-10-15T17:38:30;100158.16;;;27.86;39.65
13456;BME280;6800;50.940;6.940;2022-10-15T17:42:30;100159.63;;;27.82;39.72
13456;BME280;6800;50.940;6.940;2022-10-15T17:46:30;100150.16;;;27.66;40.11
13456;BME280;6800;50.940;6.940;2022-10-15T17:50:31;100166.88;;;27.68;39.60
13456;BME280;6800;50.940;6.940;2022-10-15T17:54:31;100161.16;;;27.39;40.65
13456;BME280;6800;50.940;6.940;2022-10-15T17:58:31;100156.63;;;27.39;40.59
13456;BME280;6800;50.940;6.940;2022-10-15T18:02:32;100167.94;;;27.28;40.46
13456;BME280;6800;50.940;6.940;2022-10-15T18:06:32;100173.31;;;27.15;41.35
13456;BME280;6800;50.940;6.940;2022-10-15T18:10:35;100180.13;;;27.11;41.32
13456;BME280;6800;50.940;6.940;2022-10-15T18:14:35;100201.97;;;26.95;41.84
13456;BME280;6800;50.940;6.940;2022-10-15T18:18:36;100190.63;;;26.93;41.71
13456;BME280;6800;50.940;6.940;2022-10-15T18:22:36;100191.22;;;26.75;42.12
13456;BME280;6800;50.940;6.940;2022-10-15T18:26:37;100184.78;;;26.70;42.04
13456;BME280;6800;50.940;6.940;2022-10-15T18:30:38;100199.19;;;26.69;42.48
13456;BME280;6800;50.940;6.940;2022-10-15T18:34:39;100190.19;;;26.96;42.01
13456;BME280;6800;50.940;6.940;2022-10-15T18:38:39;100187.31;;;26.78;42.16
13456;BME280;6800;50.940;6.940;2022-10-15T18:42:42;100197.63;;;27.00;42.01
13456;BME280;6800;50.940;6.940;2022-10-15T18:46:43;100195.16;;;26.99;42.11
13456;BME280;6800;50.940;6.940;2022-10-15T18:50:43;100201.97;;;27.08;41.71
13456;BME280;6800;50.940;6.940;2022-10-15T18:54:44;100209.59;;;27.04;41.90
13456;BME280;6800;50.940;6.940;2022-10-15T18:58:44;100190.22;;;27.09;42.11
13456;BME280;6800;50.940;6.940;2022-10-15T19:02:44;100192.28;;;27.07;41.73
13456;BME280;6800;50.940;6.940;2022-10-15T19:06:47;100186.25;;;26.79;42.36
13456;BME280;6800;50.940;6.940;2022-10-15T19:10:47;100204.41;;;26.90;42.37
13456;BME280;6800;50.940;6.940;2022-10-15T19:14:48;100206.66;;;26.73;42.82
13456;BME280;6800;50.940;6.940;2022-10-15T19:18:48;100221.63;;;26.55;43.01
13456;BME280;6800;50.940;6.940;2022-10-15T19:22:48;100230.91;;;26.59;43.23
13456;BME280;6800;50.940;6.940;2022-10-15T19:26:50;100217.78;;;26.77;42.70
13456;BME280;6800;50.940;6.940;2022-10-15T19:30:58;100229.50;;;26.69;42.80
13456;BME280;6800;50.940;6.940;2022-10-15T19:34:58;100222.69;;;26.67;43.14
13456;BME280;6800;50.940;6.940;2022-10-15T19:39:00;100216.91;;;26.63;42.97
13456;BME280;6800;50.940;6.940;2022-10-15T19:43:01;100212.03;;;26.73;42.53
13456;BME280;6800;50.940;6.940;2022-10-15T19:47:01;100217.72;;;26.57;43.05
13456;BME280;6800;50.940;6.940;2022-10-15T19:51:03;100231.00;;;26.24;43.97
13456;BME280;6800;50.940;6.940;2022-10-15T19:55:04;100231.13;;;26.64;43.00
13456;BME280;6800;50.940;6.940;2022-10-15T19:59:05;100237.28;;;26.58;42.95
13456;BME280;6800;50.940;6.940;2022-10-15T20:03:05;100234.75;;;26.43;43.62
13456;BME280;6800;50.940;6.940;2022-10-15T20:07:07;100240.16;;;26.50;43.01
13456;BME280;6800;50.940;6.940;2022-10-15T20:11:07;100251.50;;;26.58;43.25
13456;BME280;6800;50.940;6.940;2022-10-15T20:15:08;100248.81;;;26.52;42.74
13456;BME280;6800;50.940;6.940;2022-10-15T20:19:08;100261.34;;;26.51;42.58
13456;BME280;6800;50.940;6.940;2022-10-15T20:23:09;100257.28;;;26.62;42.26
13456;BME280;6800;50.940;6.940;2022-10-15T20:27:10;100250.47;;;26.53;42.31
13456;BME280;6800;50.940;6.940;2022-10-15T20:31:13;100263.25;;;26.64;41.95
13456;BME280;6800;50.940;6.940;2022-10-15T20:35:15;100278.69;;;26.62;42.03
13456;BME280;6800;50.940;6.940;2022-10-15T20:39:16;100276.44;;;26.59;41.95
13456;BME280;6800;50.940;6.940;2022-10-15T20:43:17;100291.66;;;26.52;41.79
13456;BME280;6800;50.940;6.940;2022-10-15T20:47:17;100298.47;;;26.54;41.92
13456;BME280;6800;50.940;6.940;2022-10-15T20:51:18;100308.13;;;26.55;41.99
13456;BME280;6800;50.940;6.940;2022-10-15T20:55:18;100319.22;;;26.46;42.86
13456;BME280;6800;50.940;6.940;2022-10-15T20:59:19;100325.38;;;26.40;42.54
13456;BME280;6800;50.940;6.940;2022-10-15T21:03:20;100324.94;;;26.36;42.86
13456;BME280;6800;50.940;6.940;2022-10-15T21:07:21;100336.81;;;26.20;42.93
13456;BME280;6800;50.940;6.940;2022-10-15T21:11:23;100354.25;;;26.44;42.57
13456;BME280;6800;50.940;6.940;2022-10-15T21:15:23;100343.31;;;26.46;42.73
13456;BME280;6800;50.940;6.940;2022-10-15T21:19:24;100340.28;;;26.49;42.38
13456;BME280;6800;50.940;6.940;2022-10-15T21:23:24;100349.59;;;26.59;42.04
13456;BME280;6800;50.940;6.940;2022-10-15T21:27:24;100352.22;;;26.53;42.19
13456;BME280;6800;50.940;6.940;2022-10-15T21:31:25;100342.53;;;26.52;41.34
13456;BME280;6800;50.940;6.940;2022-10-15T21:35:25;100332.06;;;26.22;41.73
13456;BME280;6800;50.940;6.940;2022-10-15T21:39:26;100341.53;;;26.53;41.05
13456;BME280;6800;50.940;6.940;2022-10-15T21:43:27;100338.88;;;26.59;40.94
13456;BME280;6800;50.940;6.940;2022-10-15T21:47:27;100336.97;;;26.53;40.31
13456;BME280;6800;50.940;6.940;2022-10-15T21:51:30;100336.97;;;26.47;40.70
13456;BME280;6800;50.940;6.940;2022-10-15T21:55:31;100342.06;;;26.42;40.20
13456;BME280;6800;50.940;6.940;2022-10-15T21:59:31;100342.41;;;26.32;40.25
13456;BME280;6800;50.940;6.940;2022-10-15T22:03:32;100354.38;;;26.36;40.52
13456;BME280;6800;50.940;6.940;2022-10-15T22:07:32;100359.72;;;26.36;40.32
13456;BME280;6800;50.940;6.940;2022-10-15T22:11:35;100359.34;;;26.39;40.31
13456;BME280;6800;50.940;6.940;2022-10-15T22:15:35;100343.28;;;26.39;40.32
13456;BME280;6800;50.940;6.940;2022-10-15T22:19:35;100349.69;;;26.38;40.13
13456;BME280;6800;50.940;6.940;2022-10-15T22:23:36;100342.66;;;26.37;40.22
13456;BME280;6800;50.940;6.940;2022-10-15T22:27:36;100347.59;;;26.34;40.13
13456;BME280;6800;50.940;6.940;2022-10-15T22:31:36;100342.84;;;26.70;39.67
13456;BME280;6800;50.940;6.940;2022-10-15T22:35:37;100342.94;;;26.49;40.06
13456;BME280;6800;50.940;6.940;2022-10-15T22:39:37;100341.44;;;26.40;40.59
13456;BME280;6800;50.940;6.940;2022-10-15T22:43:39;100355.63;;;26.34;40.42
13456;BME280;6800;50.940;6.940;2022-10-15T22:47:39;100354.06;;;26.18;41.49
13456;BME280;6800;50.940;6.940;2022-10-15T22:51:40;100356.31;;;26.14;41.72
13456;BME280;6800;50.940;6.940;2022-10-15T22:55:41;100369.38;;;26.30;41.40